sensor_id;sensor_type;location;lat;lon;timestamp;pressure;altitude;pressure_sealevel;temperature
71807;BMP280;59655;42.590;23.364;2024-03-06T00:00:40;91109.38;;;6.37
71807;BMP280;59655;42.590;23.364;2024-03-06T00:03:05;91110.78;;;6.38
71807;BMP280;59655;42.590;23.364;2024-03-06T00:05:30;91125.09;;;6.29
71807;BMP280;59655;42.590;23.364;2024-03-06T00:07:56;91117.34;;;6.23
71807;BMP280;59655;42.590;23.364;2024-03-06T00:10:21;91115.97;;;6.09
71807;BMP280;59655;42.590;23.364;2024-03-06T00:12:47;91121.00;;;6.20
71807;BMP280;59655;42.590;23.364;2024-03-06T00:15:14;91111.22;;;6.07
71807;BMP280;59655;42.590;23.364;2024-03-06T00:17:40;91111.53;;;6.04
71807;BMP280;59655;42.590;23.364;2024-03-06T00:20:06;91109.91;;;6.01
71807;BMP280;59655;42.590;23.364;2024-03-06T00:22:33;91114.88;;;6.04
71807;BMP280;59655;42.590;23.364;2024-03-06T00:24:59;91115.78;;;6.07
71807;BMP280;59655;42.590;23.364;2024-03-06T00:27:24;91112.66;;;5.95
71807;BMP280;59655;42.590;23.364;2024-03-06T00:29:49;91101.25;;;5.93
71807;BMP280;59655;42.590;23.364;2024-03-06T00:32:15;91103.22;;;6.00
71807;BMP280;59655;42.590;23.364;2024-03-06T00:34:40;91107.88;;;6.07
71807;BMP280;59655;42.590;23.364;2024-03-06T00:37:05;91111.31;;;6.02
71807;BMP280;59655;42.590;23.364;2024-03-06T00:39:31;91113.69;;;5.92
71807;BMP280;59655;42.590;23.364;2024-03-06T00:41:56;91108.28;;;5.98
71807;BMP280;59655;42.590;23.364;2024-03-06T00:44:21;91104.38;;;5.91
71807;BMP280;59655;42.590;23.364;2024-03-06T00:46:47;91107.31;;;5.88
71807;BMP280;59655;42.590;23.364;2024-03-06T00:49:12;91102.16;;;5.82
71807;BMP280;59655;42.590;23.364;2024-03-06T00:51:37;91104.00;;;5.87
71807;BMP280;59655;42.590;23.364;2024-03-06T00:54:03;91109.25;;;5.87
71807;BMP280;59655;42.590;23.364;2024-03-06T00:56:29;91108.94;;;5.91
71807;BMP280;59655;42.590;23.364;2024-03-06T00:58:56;91101.63;;;5.97
71807;BMP280;59655;42.590;23.364;2024-03-06T01:01:21;91114.47;;;6.00
71807;BMP280;59655;42.590;23.364;2024-03-06T01:03:46;91116.53;;;5.94
71807;BMP280;59655;42.590;23.364;2024-03-06T01:06:12;91114.22;;;5.91
71807;BMP280;59655;42.590;23.364;2024-03-06T01:08:38;91114.31;;;5.85
71807;BMP280;59655;42.590;23.364;2024-03-06T01:11:03;91119.31;;;5.75
71807;BMP280;59655;42.590;23.364;2024-03-06T01:13:29;91120.09;;;5.83
71807;BMP280;59655;42.590;23.364;2024-03-06T01:15:55;91123.00;;;5.93
71807;BMP280;59655;42.590;23.364;2024-03-06T01:18:20;91119.31;;;5.96
71807;BMP280;59655;42.590;23.364;2024-03-06T01:20:45;91125.22;;;6.02
71807;BMP280;59655;42.590;23.364;2024-03-06T01:23:11;91118.31;;;5.99
71807;BMP280;59655;42.590;23.364;2024-03-06T01:25:36;91130.88;;;6.06
71807;BMP280;59655;42.590;23.364;2024-03-06T01:28:02;91125.91;;;6.03
71807;BMP280;59655;42.590;23.364;2024-03-06T01:30:27;91131.47;;;5.99
71807;BMP280;59655;42.590;23.364;2024-03-06T01:32:52;91124.28;;;6.00
71807;BMP280;59655;42.590;23.364;2024-03-06T01:35:20;91126.53;;;5.96
71807;BMP280;59655;42.590;23.364;2024-03-06T01:37:45;91125.66;;;5.93
71807;BMP280;59655;42.590;23.364;2024-03-06T01:40:11;91119.16;;;5.94
71807;BMP280;59655;42.590;23.364;2024-03-06T01:42:37;91124.75;;;5.77
71807;BMP280;59655;42.590;23.364;2024-03-06T01:45:03;91123.53;;;5.78
71807;BMP280;59655;42.590;23.364;2024-03-06T01:47:29;91124.97;;;5.79
71807;BMP280;59655;42.590;23.364;2024-03-06T01:49:55;91130.84;;;5.72
71807;BMP280;59655;42.590;23.364;2024-03-06T01:52:21;91123.34;;;5.76
71807;BMP280;59655;42.590;23.364;2024-03-06T01:54:47;91122.13;;;5.77
71807;BMP280;59655;42.590;23.364;2024-03-06T01:57:15;91119.88;;;5.81
71807;BMP280;59655;42.590;23.364;2024-03-06T01:59:42;91121.47;;;5.84
71807;BMP280;59655;42.590;23.364;2024-03-06T02:02:07;91117.75;;;5.80
71807;BMP280;59655;42.590;23.364;2024-03-06T02:04:36;91125.25;;;5.76
71807;BMP280;59655;42.590;23.364;2024-03-06T02:07:02;91125.25;;;5.76
71807;BMP280;59655;42.590;23.364;2024-03-06T02:09:27;91129.00;;;5.67
71807;BMP280;59655;42.590;23.364;2024-03-06T02:11:53;91121.94;;;5.49
71807;BMP280;59655;42.590;23.364;2024-03-06T02:14:19;91129.34;;;5.50
71807;BMP280;59655;42.590;23.364;2024-03-06T02:16:44;91124.97;;;5.53
71807;BMP280;59655;42.590;23.364;2024-03-06T02:19:09;91130.03;;;5.51
71807;BMP280;59655;42.590;23.364;2024-03-06T02:21:35;91125.97;;;5.50
71807;BMP280;59655;42.590;23.364;2024-03-06T02:24:00;91129.44;;;5.44
71807;BMP280;59655;42.590;23.364;2024-03-06T02:26:25;91136.00;;;5.38
71807;BMP280;59655;42.590;23.364;2024-03-06T02:28:52;91140.56;;;5.37
71807;BMP280;59655;42.590;23.364;2024-03-06T02:31:18;91136.09;;;5.19
71807;BMP280;59655;42.590;23.364;2024-03-06T02:33:45;91128.19;;;5.19
71807;BMP280;59655;42.590;23.364;2024-03-06T02:36:12;91134.59;;;5.23
71807;BMP280;59655;42.590;23.364;2024-03-06T02:38:37;91138.34;;;5.28
71807;BMP280;59655;42.590;23.364;2024-03-06T02:41:03;91131.66;;;5.27
71807;BMP280;59655;42.590;23.364;2024-03-06T02:43:28;91134.19;;;5.19
71807;BMP280;59655;42.590;23.364;2024-03-06T02:45:54;91128.00;;;5.17
71807;BMP280;59655;42.590;23.364;2024-03-06T02:48:19;91136.38;;;5.02
71807;BMP280;59655;42.590;23.364;2024-03-06T02:50:44;91129.19;;;5.02
71807;BMP280;59655;42.590;23.364;2024-03-06T02:53:11;91129.69;;;5.01
71807;BMP280;59655;42.590;23.364;2024-03-06T02:55:36;91132.22;;;4.93
71807;BMP280;59655;42.590;23.364;2024-03-06T02:58:02;91136.50;;;4.96
71807;BMP280;59655;42.590;23.364;2024-03-06T03:00:28;91132.81;;;4.99
71807;BMP280;59655;42.590;23.364;2024-03-06T03:02:53;91135.75;;;4.96
71807;BMP280;59655;42.590;23.364;2024-03-06T03:05:18;91132.81;;;4.99
71807;BMP280;59655;42.590;23.364;2024-03-06T03:07:44;91137.38;;;4.99
71807;BMP280;59655;42.590;23.364;2024-03-06T03:10:09;91139.31;;;4.98
71807;BMP280;59655;42.590;23.364;2024-03-06T03:12:37;91135.16;;;5.03
71807;BMP280;59655;42.590;23.364;2024-03-06T03:15:03;91141.19;;;4.98
71807;BMP280;59655;42.590;23.364;2024-03-06T03:17:29;91149.09;;;4.98
71807;BMP280;59655;42.590;23.364;2024-03-06T03:19:54;91141.25;;;4.66
71807;BMP280;59655;42.590;23.364;2024-03-06T03:22:19;91141.34;;;4.60
71807;BMP280;59655;42.590;23.364;2024-03-06T03:24:45;91135.47;;;4.67
71807;BMP280;59655;42.590;23.364;2024-03-06T03:27:10;91138.34;;;4.82
71807;BMP280;59655;42.590;23.364;2024-03-06T03:29:36;91139.19;;;4.91
71807;BMP280;59655;42.590;23.364;2024-03-06T03:32:01;91139.78;;;4.83
71807;BMP280;59655;42.590;23.364;2024-03-06T03:34:27;91141.41;;;4.87
71807;BMP280;59655;42.590;23.364;2024-03-06T03:36:52;91140.19;;;4.88
71807;BMP280;59655;42.590;23.364;2024-03-06T03:39:17;91139.34;;;4.79
71807;BMP280;59655;42.590;23.364;2024-03-06T03:41:46;91138.56;;;4.85
71807;BMP280;59655;42.590;23.364;2024-03-06T03:44:13;91135.50;;;4.80
71807;BMP280;59655;42.590;23.364;2024-03-06T03:46:40;91137.63;;;4.82
71807;BMP280;59655;42.590;23.364;2024-03-06T03:49:05;91143.50;;;4.75
71807;BMP280;59655;42.590;23.364;2024-03-06T03:51:31;91139.66;;;4.76
71807;BMP280;59655;42.590;23.364;2024-03-06T03:53:56;91148.66;;;4.80
71807;BMP280;59655;42.590;23.364;2024-03-06T03:56:22;91148.47;;;4.78
71807;BMP280;59655;42.590;23.364;2024-03-06T03:58:47;91154.22;;;4.77
71807;BMP280;59655;42.590;23.364;2024-03-06T04:01:13;91160.56;;;4.68
71807;BMP280;59655;42.590;23.364;2024-03-06T04:03:38;91160.16;;;4.45
71807;BMP280;59655;42.590;23.364;2024-03-06T04:06:04;91160.13;;;4.64
71807;BMP280;59655;42.590;23.364;2024-03-06T04:08:32;91165.09;;;4.68
71807;BMP280;59655;42.590;23.364;2024-03-06T04:10:58;91162.75;;;4.64
71807;BMP280;59655;42.590;23.364;2024-03-06T04:13:23;91166.38;;;4.61
71807;BMP280;59655;42.590;23.364;2024-03-06T04:15:49;91177.09;;;4.63
71807;BMP280;59655;42.590;23.364;2024-03-06T04:18:14;91173.84;;;4.57
71807;BMP280;59655;42.590;23.364;2024-03-06T04:20:39;91183.38;;;4.60
71807;BMP280;59655;42.590;23.364;2024-03-06T04:23:05;91180.22;;;4.61
71807;BMP280;59655;42.590;23.364;2024-03-06T04:25:30;91184.41;;;4.70
71807;BMP280;59655;42.590;23.364;2024-03-06T04:27:55;91186.59;;;4.66
71807;BMP280;59655;42.590;23.364;2024-03-06T04:30:21;91190.00;;;4.61
71807;BMP280;59655;42.590;23.364;2024-03-06T04:32:46;91191.03;;;4.58
71807;BMP280;59655;42.590;23.364;2024-03-06T04:35:12;91186.78;;;4.55
71807;BMP280;59655;42.590;23.364;2024-03-06T04:37:37;91189.19;;;4.53
71807;BMP280;59655;42.590;23.364;2024-03-06T04:40:03;91186.13;;;4.30
71807;BMP280;59655;42.590;23.364;2024-03-06T04:42:33;91188.06;;;4.29
71807;BMP280;59655;42.590;23.364;2024-03-06T04:45:01;91183.41;;;4.41
71807;BMP280;59655;42.590;23.364;2024-03-06T04:47:26;91186.56;;;4.53
71807;BMP280;59655;42.590;23.364;2024-03-06T04:49:51;91186.50;;;4.58
71807;BMP280;59655;42.590;23.364;2024-03-06T04:52:18;91192.44;;;4.59
71807;BMP280;59655;42.590;23.364;2024-03-06T04:54:44;91193.66;;;4.58
71807;BMP280;59655;42.590;23.364;2024-03-06T04:57:09;91188.28;;;4.50
71807;BMP280;59655;42.590;23.364;2024-03-06T04:59:34;91196.66;;;4.49
71807;BMP280;59655;42.590;23.364;2024-03-06T05:02:01;91198.28;;;4.52
71807;BMP280;59655;42.590;23.364;2024-03-06T05:04:28;91203.53;;;4.52
71807;BMP280;59655;42.590;23.364;2024-03-06T05:06:54;91201.47;;;4.26
71807;BMP280;59655;42.590;23.364;2024-03-06T05:09:19;91206.16;;;4.33
71807;BMP280;59655;42.590;23.364;2024-03-06T05:11:44;91204.09;;;4.45
71807;BMP280;59655;42.590;23.364;2024-03-06T05:14:10;91205.50;;;4.46
71807;BMP280;59655;42.590;23.364;2024-03-06T05:16:35;91208.56;;;4.50
71807;BMP280;59655;42.590;23.364;2024-03-06T05:19:00;91212.47;;;4.43
71807;BMP280;59655;42.590;23.364;2024-03-06T05:21:26;91213.97;;;4.57
71807;BMP280;59655;42.590;23.364;2024-03-06T05:23:52;91208.53;;;4.69
71807;BMP280;59655;42.590;23.364;2024-03-06T05:26:17;91211.81;;;4.75
71807;BMP280;59655;42.590;23.364;2024-03-06T05:28:43;91218.59;;;4.83
71807;BMP280;59655;42.590;23.364;2024-03-06T05:31:18;91219.03;;;4.88
71807;BMP280;59655;42.590;23.364;2024-03-06T05:33:45;91219.72;;;4.88
71807;BMP280;59655;42.590;23.364;2024-03-06T05:36:11;91230.97;;;4.89
71807;BMP280;59655;42.590;23.364;2024-03-06T05:38:38;91222.06;;;4.92
71807;BMP280;59655;42.590;23.364;2024-03-06T05:41:04;91222.69;;;4.98
71807;BMP280;59655;42.590;23.364;2024-03-06T05:43:29;91227.75;;;4.96
71807;BMP280;59655;42.590;23.364;2024-03-06T05:45:54;91233.13;;;5.03
71807;BMP280;59655;42.590;23.364;2024-03-06T05:48:20;91240.53;;;5.05
71807;BMP280;59655;42.590;23.364;2024-03-06T05:50:45;91235.97;;;5.06
71807;BMP280;59655;42.590;23.364;2024-03-06T05:53:10;91244.50;;;5.12
71807;BMP280;59655;42.590;23.364;2024-03-06T05:55:37;91239.28;;;5.25
71807;BMP280;59655;42.590;23.364;2024-03-06T05:58:02;91240.19;;;5.28
71807;BMP280;59655;42.590;23.364;2024-03-06T06:00:28;91236.53;;;5.31
71807;BMP280;59655;42.590;23.364;2024-03-06T06:02:53;91241.22;;;5.38
71807;BMP280;59655;42.590;23.364;2024-03-06T06:05:18;91243.47;;;5.47
71807;BMP280;59655;42.590;23.364;2024-03-06T06:07:45;91241.84;;;5.57
71807;BMP280;59655;42.590;23.364;2024-03-06T06:10:11;91248.44;;;5.64
71807;BMP280;59655;42.590;23.364;2024-03-06T06:12:36;91245.91;;;5.72
71807;BMP280;59655;42.590;23.364;2024-03-06T06:15:02;91247.03;;;5.76
71807;BMP280;59655;42.590;23.364;2024-03-06T06:17:27;91256.75;;;5.81
71807;BMP280;59655;42.590;23.364;2024-03-06T06:19:52;91247.13;;;5.84
71807;BMP280;59655;42.590;23.364;2024-03-06T06:22:18;91245.94;;;5.85
71807;BMP280;59655;42.590;23.364;2024-03-06T06:24:43;91241.28;;;5.91
71807;BMP280;59655;42.590;23.364;2024-03-06T06:27:10;91241.97;;;5.92
71807;BMP280;59655;42.590;23.364;2024-03-06T06:29:36;91238.22;;;6.00
71807;BMP280;59655;42.590;23.364;2024-03-06T06:32:01;91246.34;;;6.02
71807;BMP280;59655;42.590;23.364;2024-03-06T06:34:26;91242.19;;;6.07
71807;BMP280;59655;42.590;23.364;2024-03-06T06:36:53;91242.97;;;6.15
71807;BMP280;59655;42.590;23.364;2024-03-06T06:39:18;91232.53;;;6.23
71807;BMP280;59655;42.590;23.364;2024-03-06T06:41:44;91242.44;;;6.30
71807;BMP280;59655;42.590;23.364;2024-03-06T06:44:09;91234.44;;;6.36
71807;BMP280;59655;42.590;23.364;2024-03-06T06:46:34;91242.22;;;6.41
71807;BMP280;59655;42.590;23.364;2024-03-06T06:49:00;91247.19;;;6.45
71807;BMP280;59655;42.590;23.364;2024-03-06T06:51:25;91246.66;;;6.46
71807;BMP280;59655;42.590;23.364;2024-03-06T06:53:50;91252.16;;;6.48
71807;BMP280;59655;42.590;23.364;2024-03-06T06:56:16;91257.06;;;6.52
71807;BMP280;59655;42.590;23.364;2024-03-06T06:58:41;91254.25;;;6.50
71807;BMP280;59655;42.590;23.364;2024-03-06T07:01:08;91259.53;;;6.50
71807;BMP280;59655;42.590;23.364;2024-03-06T07:03:34;91258.50;;;6.53
71807;BMP280;59655;42.590;23.364;2024-03-06T07:05:59;91260.84;;;6.57
71807;BMP280;59655;42.590;23.364;2024-03-06T07:08:25;91262.25;;;6.58
71807;BMP280;59655;42.590;23.364;2024-03-06T07:10:50;91259.81;;;6.60
71807;BMP280;59655;42.590;23.364;2024-03-06T07:13:18;91254.72;;;6.62
71807;BMP280;59655;42.590;23.364;2024-03-06T07:15:43;91255.84;;;6.66
71807;BMP280;59655;42.590;23.364;2024-03-06T07:18:09;91248.81;;;6.69
71807;BMP280;59655;42.590;23.364;2024-03-06T07:20:34;91244.97;;;6.70
71807;BMP280;59655;42.590;23.364;2024-03-06T07:22:59;91252.34;;;6.72
71807;BMP280;59655;42.590;23.364;2024-03-06T07:25:25;91246.97;;;6.77
71807;BMP280;59655;42.590;23.364;2024-03-06T07:27:50;91251.94;;;6.81
71807;BMP280;59655;42.590;23.364;2024-03-06T07:30:15;91255.47;;;6.83
71807;BMP280;59655;42.590;23.364;2024-03-06T07:32:41;91258.31;;;6.85
71807;BMP280;59655;42.590;23.364;2024-03-06T07:35:06;91256.38;;;6.86
71807;BMP280;59655;42.590;23.364;2024-03-06T07:37:32;91258.19;;;6.91
71807;BMP280;59655;42.590;23.364;2024-03-06T07:39:58;91250.47;;;6.93
71807;BMP280;59655;42.590;23.364;2024-03-06T07:42:25;91263.13;;;6.95
71807;BMP280;59655;42.590;23.364;2024-03-06T07:44:50;91255.41;;;6.97
71807;BMP280;59655;42.590;23.364;2024-03-06T07:47:16;91258.28;;;6.99
71807;BMP280;59655;42.590;23.364;2024-03-06T07:49:41;91262.50;;;7.02
71807;BMP280;59655;42.590;23.364;2024-03-06T07:52:07;91254.75;;;7.04
71807;BMP280;59655;42.590;23.364;2024-03-06T07:54:32;91259.03;;;7.07
71807;BMP280;59655;42.590;23.364;2024-03-06T07:56:58;91260.25;;;7.06
71807;BMP280;59655;42.590;23.364;2024-03-06T07:59:23;91261.66;;;7.07
71807;BMP280;59655;42.590;23.364;2024-03-06T08:01:49;91265.19;;;7.09
71807;BMP280;59655;42.590;23.364;2024-03-06T08:04:14;91262.06;;;7.11
71807;BMP280;59655;42.590;23.364;2024-03-06T08:06:39;91274.75;;;7.13
71807;BMP280;59655;42.590;23.364;2024-03-06T08:09:05;91273.44;;;7.06
71807;BMP280;59655;42.590;23.364;2024-03-06T08:11:31;91271.06;;;7.16
71807;BMP280;59655;42.590;23.364;2024-03-06T08:13:58;91273.88;;;7.18
71807;BMP280;59655;42.590;23.364;2024-03-06T08:16:24;91270.72;;;7.19
71807;BMP280;59655;42.590;23.364;2024-03-06T08:18:49;91264.44;;;7.22
71807;BMP280;59655;42.590;23.364;2024-03-06T08:21:15;91262.69;;;7.25
71807;BMP280;59655;42.590;23.364;2024-03-06T08:23:40;91271.53;;;7.27
71807;BMP280;59655;42.590;23.364;2024-03-06T08:26:05;91269.78;;;7.30
71807;BMP280;59655;42.590;23.364;2024-03-06T08:28:31;91272.59;;;7.32
71807;BMP280;59655;42.590;23.364;2024-03-06T08:30:56;91269.66;;;7.36
71807;BMP280;59655;42.590;23.364;2024-03-06T08:33:22;91266.72;;;7.39
71807;BMP280;59655;42.590;23.364;2024-03-06T08:35:48;91275.31;;;7.40
71807;BMP280;59655;42.590;23.364;2024-03-06T08:38:13;91278.84;;;7.42
71807;BMP280;59655;42.590;23.364;2024-03-06T08:40:39;91278.53;;;7.46
71807;BMP280;59655;42.590;23.364;2024-03-06T08:43:06;91276.06;;;7.48
71807;BMP280;59655;42.590;23.364;2024-03-06T08:45:31;91279.06;;;7.52
71807;BMP280;59655;42.590;23.364;2024-03-06T08:47:57;91282.97;;;7.51
71807;BMP280;59655;42.590;23.364;2024-03-06T08:50:22;91282.97;;;7.51
71807;BMP280;59655;42.590;23.364;2024-03-06T08:52:48;91271.34;;;7.54
71807;BMP280;59655;42.590;23.364;2024-03-06T08:55:13;91270.84;;;7.56
71807;BMP280;59655;42.590;23.364;2024-03-06T08:57:39;91271.03;;;7.58
71807;BMP280;59655;42.590;23.364;2024-03-06T09:00:05;91275.81;;;7.59
71807;BMP280;59655;42.590;23.364;2024-03-06T09:02:36;91275.31;;;7.61
71807;BMP280;59655;42.590;23.364;2024-03-06T09:05:04;91276.88;;;7.64
71807;BMP280;59655;42.590;23.364;2024-03-06T09:07:30;91283.06;;;7.66
71807;BMP280;59655;42.590;23.364;2024-03-06T09:09:55;91280.44;;;7.66
71807;BMP280;59655;42.590;23.364;2024-03-06T09:12:20;91280.09;;;7.70
71807;BMP280;59655;42.590;23.364;2024-03-06T09:14:46;91281.00;;;7.72
71807;BMP280;59655;42.590;23.364;2024-03-06T09:17:11;91289.47;;;7.79
71807;BMP280;59655;42.590;23.364;2024-03-06T09:19:40;91294.44;;;7.82
71807;BMP280;59655;42.590;23.364;2024-03-06T09:22:06;91293.22;;;7.83
71807;BMP280;59655;42.590;23.364;2024-03-06T09:24:31;91278.78;;;7.84
71807;BMP280;59655;42.590;23.364;2024-03-06T09:26:56;91283.03;;;7.87
71807;BMP280;59655;42.590;23.364;2024-03-06T09:29:22;91284.31;;;7.94
71807;BMP280;59655;42.590;23.364;2024-03-06T09:31:48;91289.25;;;7.97
71807;BMP280;59655;42.590;23.364;2024-03-06T09:34:14;91289.78;;;7.96
71807;BMP280;59655;42.590;23.364;2024-03-06T09:36:41;91288.53;;;7.97
71807;BMP280;59655;42.590;23.364;2024-03-06T09:39:12;91292.47;;;8.04
71807;BMP280;59655;42.590;23.364;2024-03-06T09:41:41;91284.38;;;8.09
71807;BMP280;59655;42.590;23.364;2024-03-06T09:44:07;91284.75;;;8.13
71807;BMP280;59655;42.590;23.364;2024-03-06T09:46:35;91280.94;;;8.22
71807;BMP280;59655;42.590;23.364;2024-03-06T09:49:01;91283.22;;;8.26
71807;BMP280;59655;42.590;23.364;2024-03-06T09:51:27;91287.47;;;8.29
71807;BMP280;59655;42.590;23.364;2024-03-06T09:53:53;91280.56;;;8.26
71807;BMP280;59655;42.590;23.364;2024-03-06T09:56:19;91284.16;;;8.36
71807;BMP280;59655;42.590;23.364;2024-03-06T09:58:45;91278.72;;;8.42
71807;BMP280;59655;42.590;23.364;2024-03-06T10:01:12;91287.91;;;8.48
71807;BMP280;59655;42.590;23.364;2024-03-06T10:03:38;91284.91;;;8.52
71807;BMP280;59655;42.590;23.364;2024-03-06T10:06:06;91278.78;;;8.57
71807;BMP280;59655;42.590;23.364;2024-03-06T10:08:33;91279.31;;;8.63
71807;BMP280;59655;42.590;23.364;2024-03-06T10:10:59;91280.38;;;8.68
71807;BMP280;59655;42.590;23.364;2024-03-06T10:13:25;91281.63;;;8.67
71807;BMP280;59655;42.590;23.364;2024-03-06T10:16:01;91272.44;;;8.68
71807;BMP280;59655;42.590;23.364;2024-03-06T10:18:28;91281.81;;;8.69
71807;BMP280;59655;42.590;23.364;2024-03-06T10:20:55;91272.97;;;8.74
71807;BMP280;59655;42.590;23.364;2024-03-06T10:23:20;91269.13;;;8.75
71807;BMP280;59655;42.590;23.364;2024-03-06T10:25:49;91270.31;;;8.74
71807;BMP280;59655;42.590;23.364;2024-03-06T10:28:22;91267.16;;;8.75
71807;BMP280;59655;42.590;23.364;2024-03-06T10:30:49;91264.91;;;8.79
71807;BMP280;59655;42.590;23.364;2024-03-06T10:33:16;91269.81;;;8.83
71807;BMP280;59655;42.590;23.364;2024-03-06T10:35:45;91255.38;;;8.84
71807;BMP280;59655;42.590;23.364;2024-03-06T10:38:12;91258.56;;;8.90
71807;BMP280;59655;42.590;23.364;2024-03-06T10:40:39;91257.88;;;8.97
71807;BMP280;59655;42.590;23.364;2024-03-06T10:43:05;91257.16;;;9.05
71807;BMP280;59655;42.590;23.364;2024-03-06T10:45:51;91251.69;;;9.02
71807;BMP280;59655;42.590;23.364;2024-03-06T10:48:18;91247.66;;;9.09
71807;BMP280;59655;42.590;23.364;2024-03-06T10:50:48;91239.88;;;9.11
71807;BMP280;59655;42.590;23.364;2024-03-06T10:53:18;91242.88;;;9.15
71807;BMP280;59655;42.590;23.364;2024-03-06T10:55:44;91236.16;;;9.22
71807;BMP280;59655;42.590;23.364;2024-03-06T10:58:10;91230.88;;;9.22
71807;BMP280;59655;42.590;23.364;2024-03-06T11:00:44;91235.66;;;9.16
71807;BMP280;59655;42.590;23.364;2024-03-06T11:03:11;91229.31;;;9.27
71807;BMP280;59655;42.590;23.364;2024-03-06T11:05:41;91226.28;;;9.30
71807;BMP280;59655;42.590;23.364;2024-03-06T11:08:07;91222.25;;;9.29
71807;BMP280;59655;42.590;23.364;2024-03-06T11:10:35;91216.94;;;9.29
71807;BMP280;59655;42.590;23.364;2024-03-06T11:13:01;91218.53;;;9.32
71807;BMP280;59655;42.590;23.364;2024-03-06T11:15:28;91212.00;;;9.33
71807;BMP280;59655;42.590;23.364;2024-03-06T11:17:54;91203.50;;;9.42
71807;BMP280;59655;42.590;23.364;2024-03-06T11:20:20;91209.50;;;9.51
71807;BMP280;59655;42.590;23.364;2024-03-06T11:28:34;91199.75;;;9.69
71807;BMP280;59655;42.590;23.364;2024-03-06T11:31:02;91193.91;;;9.70
71807;BMP280;59655;42.590;23.364;2024-03-06T11:33:35;91192.34;;;9.75
71807;BMP280;59655;42.590;23.364;2024-03-06T11:36:25;91181.75;;;9.75
71807;BMP280;59655;42.590;23.364;2024-03-06T11:41:28;91186.31;;;9.74
71807;BMP280;59655;42.590;23.364;2024-03-06T11:43:54;91190.22;;;9.73
71807;BMP280;59655;42.590;23.364;2024-03-06T11:46:21;91180.84;;;9.72
71807;BMP280;59655;42.590;23.364;2024-03-06T11:48:54;91185.75;;;9.76
71807;BMP280;59655;42.590;23.364;2024-03-06T11:51:21;91177.63;;;9.81
71807;BMP280;59655;42.590;23.364;2024-03-06T11:53:49;91182.03;;;9.86
71807;BMP280;59655;42.590;23.364;2024-03-06T11:56:16;91177.22;;;10.00
71807;BMP280;59655;42.590;23.364;2024-03-06T11:58:42;91184.44;;;10.07
71807;BMP280;59655;42.590;23.364;2024-03-06T12:01:07;91182.66;;;10.10
71807;BMP280;59655;42.590;23.364;2024-03-06T12:03:32;91173.78;;;10.15
71807;BMP280;59655;42.590;23.364;2024-03-06T12:05:58;91169.53;;;10.20
71807;BMP280;59655;42.590;23.364;2024-03-06T12:08:24;91173.97;;;10.17
71807;BMP280;59655;42.590;23.364;2024-03-06T12:10:49;91172.03;;;10.18
71807;BMP280;59655;42.590;23.364;2024-03-06T12:13:15;91166.34;;;10.21
71807;BMP280;59655;42.590;23.364;2024-03-06T12:15:43;91170.38;;;10.22
71807;BMP280;59655;42.590;23.364;2024-03-06T12:18:09;91170.78;;;10.19
71807;BMP280;59655;42.590;23.364;2024-03-06T12:20:35;91169.31;;;10.25
71807;BMP280;59655;42.590;23.364;2024-03-06T12:23:01;91166.88;;;10.20
71807;BMP280;59655;42.590;23.364;2024-03-06T12:25:27;91168.28;;;10.28
71807;BMP280;59655;42.590;23.364;2024-03-06T12:27:54;91164.16;;;10.35
71807;BMP280;59655;42.590;23.364;2024-03-06T12:30:21;91159.50;;;10.43
71807;BMP280;59655;42.590;23.364;2024-03-06T12:32:57;91155.69;;;10.54
71807;BMP280;59655;42.590;23.364;2024-03-06T12:35:26;91149.09;;;10.63
71807;BMP280;59655;42.590;23.364;2024-03-06T12:37:52;91147.22;;;10.81
71807;BMP280;59655;42.590;23.364;2024-03-06T12:40:18;91148.66;;;10.99
71807;BMP280;59655;42.590;23.364;2024-03-06T12:42:44;91148.28;;;11.20
71807;BMP280;59655;42.590;23.364;2024-03-06T12:45:13;91141.50;;;11.27
71807;BMP280;59655;42.590;23.364;2024-03-06T12:47:42;91141.72;;;11.21
71807;BMP280;59655;42.590;23.364;2024-03-06T12:50:09;91148.50;;;11.14
71807;BMP280;59655;42.590;23.364;2024-03-06T12:52:36;91146.81;;;11.09
71807;BMP280;59655;42.590;23.364;2024-03-06T12:55:01;91143.63;;;11.03
71807;BMP280;59655;42.590;23.364;2024-03-06T12:57:26;91141.22;;;10.97
71807;BMP280;59655;42.590;23.364;2024-03-06T12:59:55;91141.63;;;10.94
71807;BMP280;59655;42.590;23.364;2024-03-06T13:02:20;91141.84;;;10.88
71807;BMP280;59655;42.590;23.364;2024-03-06T13:04:45;91139.94;;;10.81
71807;BMP280;59655;42.590;23.364;2024-03-06T13:07:11;91143.69;;;10.78
71807;BMP280;59655;42.590;23.364;2024-03-06T13:09:36;91147.38;;;10.83
71807;BMP280;59655;42.590;23.364;2024-03-06T13:12:03;91145.47;;;10.75
71807;BMP280;59655;42.590;23.364;2024-03-06T13:14:29;91152.56;;;10.73
71807;BMP280;59655;42.590;23.364;2024-03-06T13:16:55;91147.50;;;10.67
71807;BMP280;59655;42.590;23.364;2024-03-06T13:19:21;91152.47;;;10.63
71807;BMP280;59655;42.590;23.364;2024-03-06T13:21:47;91158.84;;;10.60
71807;BMP280;59655;42.590;23.364;2024-03-06T13:24:12;91163.00;;;10.53
71807;BMP280;59655;42.590;23.364;2024-03-06T13:26:38;91158.91;;;10.52
71807;BMP280;59655;42.590;23.364;2024-03-06T13:29:05;91156.09;;;10.50
71807;BMP280;59655;42.590;23.364;2024-03-06T13:31:31;91151.16;;;10.47
71807;BMP280;59655;42.590;23.364;2024-03-06T13:33:59;91162.88;;;10.44
71807;BMP280;59655;42.590;23.364;2024-03-06T13:36:25;91163.56;;;10.44
71807;BMP280;59655;42.590;23.364;2024-03-06T13:38:50;91155.09;;;10.38
71807;BMP280;59655;42.590;23.364;2024-03-06T13:41:16;91152.84;;;10.35
71807;BMP280;59655;42.590;23.364;2024-03-06T13:43:41;91149.06;;;10.38
71807;BMP280;59655;42.590;23.364;2024-03-06T13:46:07;91146.28;;;10.36
71807;BMP280;59655;42.590;23.364;2024-03-06T13:48:32;91153.91;;;10.31
71807;BMP280;59655;42.590;23.364;2024-03-06T13:50:58;91151.25;;;10.31
71807;BMP280;59655;42.590;23.364;2024-03-06T13:53:23;91153.59;;;10.27
71807;BMP280;59655;42.590;23.364;2024-03-06T13:55:48;91146.34;;;10.28
71807;BMP280;59655;42.590;23.364;2024-03-06T13:58:14;91148.44;;;10.29
71807;BMP280;59655;42.590;23.364;2024-03-06T14:00:39;91155.53;;;10.27
71807;BMP280;59655;42.590;23.364;2024-03-06T14:03:05;91152.19;;;10.26
71807;BMP280;59655;42.590;23.364;2024-03-06T14:05:30;91147.59;;;10.27
71807;BMP280;59655;42.590;23.364;2024-03-06T14:07:56;91146.00;;;10.24